sensor_id;sensor_type;location;lat;lon;timestamp;P1;durP1;ratioP1;P2;durP2;ratioP2
1296;SDS011;641;48.492;9.184;2022-12-11T00:01:56;24.83;;;11.20;;
1296;SDS011;641;48.492;9.184;2022-12-11T00:04:22;21.03;;;10.47;;
1296;SDS011;641;48.492;9.184;2022-12-11T00:06:48;24.90;;;11.50;;
1296;SDS011;641;48.492;9.184;2022-12-11T00:09:15;24.08;;;12.10;;
1296;SDS011;641;48.492;9.184;2022-12-11T00:11:41;21.80;;;12.32;;
1296;SDS011;641;48.492;9.184;2022-12-11T00:14:07;31.83;;;13.47;;
1296;SDS011;641;48.492;9.184;2022-12-11T00:16:33;24.92;;;13.00;;
1296;SDS011;641;48.492;9.184;2022-12-11T00:18:58;27.37;;;14.40;;
1296;SDS011;641;48.492;9.184;2022-12-11T00:21:24;26.63;;;12.83;;
1296;SDS011;641;48.492;9.184;2022-12-11T00:23:49;24.00;;;11.90;;
1296;SDS011;641;48.492;9.184;2022-12-11T00:26:15;22.60;;;10.80;;
1296;SDS011;641;48.492;9.184;2022-12-11T00:28:42;25.97;;;13.20;;
1296;SDS011;641;48.492;9.184;2022-12-11T00:31:09;24.27;;;12.45;;
1296;SDS011;641;48.492;9.184;2022-12-11T00:33:38;27.55;;;13.65;;
1296;SDS011;641;48.492;9.184;2022-12-11T00:36:08;28.70;;;14.07;;
1296;SDS011;641;48.492;9.184;2022-12-11T00:38:38;26.95;;;13.13;;
1296;SDS011;641;48.492;9.184;2022-12-11T00:41:04;28.33;;;13.07;;
1296;SDS011;641;48.492;9.184;2022-12-11T00:43:30;24.57;;;12.80;;
1296;SDS011;641;48.492;9.184;2022-12-11T00:45:55;27.87;;;12.67;;
1296;SDS011;641;48.492;9.184;2022-12-11T00:48:22;26.10;;;13.25;;
1296;SDS011;641;48.492;9.184;2022-12-11T00:50:47;25.17;;;13.37;;
1296;SDS011;641;48.492;9.184;2022-12-11T00:53:13;26.90;;;15.43;;
1296;SDS011;641;48.492;9.184;2022-12-11T00:55:39;25.07;;;14.20;;
1296;SDS011;641;48.492;9.184;2022-12-11T00:58:06;26.52;;;14.65;;
1296;SDS011;641;48.492;9.184;2022-12-11T01:00:32;26.75;;;13.52;;
1296;SDS011;641;48.492;9.184;2022-12-11T01:02:58;28.27;;;12.83;;
1296;SDS011;641;48.492;9.184;2022-12-11T01:05:23;24.33;;;14.37;;
1296;SDS011;641;48.492;9.184;2022-12-11T01:07:49;26.67;;;14.23;;
1296;SDS011;641;48.492;9.184;2022-12-11T01:10:15;29.40;;;14.00;;
1296;SDS011;641;48.492;9.184;2022-12-11T01:15:33;27.60;;;12.95;;
1296;SDS011;641;48.492;9.184;2022-12-11T01:18:04;23.60;;;11.45;;
1296;SDS011;641;48.492;9.184;2022-12-11T01:20:30;25.70;;;13.43;;
1296;SDS011;641;48.492;9.184;2022-12-11T01:22:57;22.65;;;11.05;;
1296;SDS011;641;48.492;9.184;2022-12-11T01:25:25;25.15;;;12.07;;
1296;SDS011;641;48.492;9.184;2022-12-11T01:27:51;23.98;;;12.38;;
1296;SDS011;641;48.492;9.184;2022-12-11T01:30:18;25.55;;;12.38;;
1296;SDS011;641;48.492;9.184;2022-12-11T01:32:46;24.10;;;12.57;;
1296;SDS011;641;48.492;9.184;2022-12-11T01:35:12;24.07;;;11.57;;
1296;SDS011;641;48.492;9.184;2022-12-11T01:37:39;27.45;;;12.50;;
1296;SDS011;641;48.492;9.184;2022-12-11T01:40:05;24.73;;;12.17;;
1296;SDS011;641;48.492;9.184;2022-12-11T01:42:33;25.30;;;12.55;;
1296;SDS011;641;48.492;9.184;2022-12-11T01:47:47;27.85;;;13.45;;
1296;SDS011;641;48.492;9.184;2022-12-11T01:50:14;23.25;;;12.43;;
1296;SDS011;641;48.492;9.184;2022-12-11T01:52:40;25.47;;;13.57;;
1296;SDS011;641;48.492;9.184;2022-12-11T01:55:08;22.80;;;12.57;;
1296;SDS011;641;48.492;9.184;2022-12-11T01:57:35;25.33;;;12.83;;
1296;SDS011;641;48.492;9.184;2022-12-11T02:00:03;23.75;;;12.93;;
1296;SDS011;641;48.492;9.184;2022-12-11T02:02:29;24.25;;;12.45;;
1296;SDS011;641;48.492;9.184;2022-12-11T02:04:57;28.80;;;14.60;;
1296;SDS011;641;48.492;9.184;2022-12-11T02:07:23;25.47;;;13.67;;
1296;SDS011;641;48.492;9.184;2022-12-11T02:09:49;24.10;;;11.50;;
1296;SDS011;641;48.492;9.184;2022-12-11T02:12:32;24.53;;;12.47;;
1296;SDS011;641;48.492;9.184;2022-12-11T02:15:13;29.92;;;14.27;;
1296;SDS011;641;48.492;9.184;2022-12-11T02:17:43;27.45;;;12.50;;
1296;SDS011;641;48.492;9.184;2022-12-11T02:23:37;26.50;;;12.60;;
1296;SDS011;641;48.492;9.184;2022-12-11T02:26:18;29.40;;;13.50;;
1296;SDS011;641;48.492;9.184;2022-12-11T02:29:06;29.30;;;15.45;;
1296;SDS011;641;48.492;9.184;2022-12-11T02:31:48;28.27;;;14.13;;
1296;SDS011;641;48.492;9.184;2022-12-11T02:34:34;25.42;;;12.65;;
1296;SDS011;641;48.492;9.184;2022-12-11T02:37:10;29.67;;;14.80;;
1296;SDS011;641;48.492;9.184;2022-12-11T02:39:40;31.88;;;13.80;;
1296;SDS011;641;48.492;9.184;2022-12-11T02:42:08;30.33;;;14.57;;
1296;SDS011;641;48.492;9.184;2022-12-11T02:44:36;26.00;;;13.13;;
1296;SDS011;641;48.492;9.184;2022-12-11T02:47:03;31.58;;;14.45;;
1296;SDS011;641;48.492;9.184;2022-12-11T02:49:34;27.13;;;14.00;;
1296;SDS011;641;48.492;9.184;2022-12-11T02:52:00;25.90;;;13.02;;
1296;SDS011;641;48.492;9.184;2022-12-11T02:54:30;32.72;;;14.82;;
1296;SDS011;641;48.492;9.184;2022-12-11T02:57:05;26.00;;;14.32;;
1296;SDS011;641;48.492;9.184;2022-12-11T02:59:52;25.75;;;13.45;;
1296;SDS011;641;48.492;9.184;2022-12-11T03:02:18;29.33;;;13.90;;
1296;SDS011;641;48.492;9.184;2022-12-11T03:04:44;27.57;;;14.80;;
1296;SDS011;641;48.492;9.184;2022-12-11T03:07:11;28.58;;;14.30;;
1296;SDS011;641;48.492;9.184;2022-12-11T03:09:44;27.48;;;14.00;;
1296;SDS011;641;48.492;9.184;2022-12-11T03:12:12;24.40;;;13.15;;
1296;SDS011;641;48.492;9.184;2022-12-11T03:14:42;28.25;;;13.68;;
1296;SDS011;641;48.492;9.184;2022-12-11T03:20:02;26.35;;;13.43;;
1296;SDS011;641;48.492;9.184;2022-12-11T03:26:10;27.15;;;14.05;;
1296;SDS011;641;48.492;9.184;2022-12-11T03:31:08;24.15;;;11.93;;
1296;SDS011;641;48.492;9.184;2022-12-11T03:33:39;27.75;;;13.80;;
1296;SDS011;641;48.492;9.184;2022-12-11T03:36:09;27.00;;;12.33;;
1296;SDS011;641;48.492;9.184;2022-12-11T03:38:45;25.63;;;13.75;;
1296;SDS011;641;48.492;9.184;2022-12-11T03:41:14;26.35;;;13.13;;
1296;SDS011;641;48.492;9.184;2022-12-11T03:43:42;25.35;;;12.75;;
1296;SDS011;641;48.492;9.184;2022-12-11T03:46:09;27.83;;;13.88;;
1296;SDS011;641;48.492;9.184;2022-12-11T03:48:37;30.60;;;15.20;;
1296;SDS011;641;48.492;9.184;2022-12-11T03:51:06;23.05;;;12.13;;
1296;SDS011;641;48.492;9.184;2022-12-11T03:53:33;24.30;;;11.57;;
1296;SDS011;641;48.492;9.184;2022-12-11T03:56:00;27.20;;;13.13;;
1296;SDS011;641;48.492;9.184;2022-12-11T03:58:28;26.10;;;13.80;;
1296;SDS011;641;48.492;9.184;2022-12-11T04:00:54;30.57;;;14.93;;
1296;SDS011;641;48.492;9.184;2022-12-11T04:03:20;27.20;;;12.67;;
1296;SDS011;641;48.492;9.184;2022-12-11T04:05:47;26.33;;;13.53;;
1296;SDS011;641;48.492;9.184;2022-12-11T04:08:13;28.83;;;14.13;;
1296;SDS011;641;48.492;9.184;2022-12-11T04:10:40;23.13;;;11.48;;
1296;SDS011;641;48.492;9.184;2022-12-11T04:13:07;20.92;;;11.13;;
1296;SDS011;641;48.492;9.184;2022-12-11T04:15:33;28.13;;;12.80;;
1296;SDS011;641;48.492;9.184;2022-12-11T04:18:00;25.35;;;12.50;;
1296;SDS011;641;48.492;9.184;2022-12-11T04:20:44;28.30;;;13.35;;
1296;SDS011;641;48.492;9.184;2022-12-11T04:23:28;22.23;;;12.35;;
1296;SDS011;641;48.492;9.184;2022-12-11T04:26:14;24.70;;;12.75;;
1296;SDS011;641;48.492;9.184;2022-12-11T04:28:42;27.15;;;14.57;;
1296;SDS011;641;48.492;9.184;2022-12-11T04:31:12;26.65;;;13.40;;
1296;SDS011;641;48.492;9.184;2022-12-11T04:33:40;24.98;;;12.70;;
1296;SDS011;641;48.492;9.184;2022-12-11T04:36:06;30.43;;;14.37;;
1296;SDS011;641;48.492;9.184;2022-12-11T04:38:32;28.13;;;12.52;;
1296;SDS011;641;48.492;9.184;2022-12-11T04:40:59;25.60;;;14.17;;
1296;SDS011;641;48.492;9.184;2022-12-11T04:43:29;32.38;;;14.45;;
1296;SDS011;641;48.492;9.184;2022-12-11T04:46:02;29.23;;;13.43;;
1296;SDS011;641;48.492;9.184;2022-12-11T04:48:30;27.00;;;13.95;;
1296;SDS011;641;48.492;9.184;2022-12-11T04:50:56;29.10;;;13.20;;
1296;SDS011;641;48.492;9.184;2022-12-11T04:53:22;26.77;;;14.43;;
1296;SDS011;641;48.492;9.184;2022-12-11T04:55:47;28.57;;;13.17;;
1296;SDS011;641;48.492;9.184;2022-12-11T04:58:13;31.00;;;14.13;;
1296;SDS011;641;48.492;9.184;2022-12-11T05:00:39;26.90;;;12.00;;
1296;SDS011;641;48.492;9.184;2022-12-11T05:03:05;27.35;;;13.10;;
1296;SDS011;641;48.492;9.184;2022-12-11T05:05:30;32.00;;;12.57;;
1296;SDS011;641;48.492;9.184;2022-12-11T05:07:56;26.50;;;12.10;;
1296;SDS011;641;48.492;9.184;2022-12-11T05:10:22;23.73;;;11.33;;
1296;SDS011;641;48.492;9.184;2022-12-11T05:12:47;26.10;;;12.57;;
1296;SDS011;641;48.492;9.184;2022-12-11T05:15:13;23.50;;;11.97;;
1296;SDS011;641;48.492;9.184;2022-12-11T05:17:39;27.20;;;11.70;;
1296;SDS011;641;48.492;9.184;2022-12-11T05:20:05;25.20;;;11.07;;
1296;SDS011;641;48.492;9.184;2022-12-11T05:22:31;29.20;;;12.65;;
1296;SDS011;641;48.492;9.184;2022-12-11T05:24:57;24.80;;;11.90;;
1296;SDS011;641;48.492;9.184;2022-12-11T05:27:22;22.60;;;11.90;;
1296;SDS011;641;48.492;9.184;2022-12-11T05:29:48;23.20;;;11.80;;
1296;SDS011;641;48.492;9.184;2022-12-11T05:32:14;23.83;;;12.10;;
1296;SDS011;641;48.492;9.184;2022-12-11T05:34:39;22.77;;;10.40;;
1296;SDS011;641;48.492;9.184;2022-12-11T05:37:06;21.30;;;10.70;;
1296;SDS011;641;48.492;9.184;2022-12-11T05:39:31;24.90;;;11.03;;
1296;SDS011;641;48.492;9.184;2022-12-11T05:41:57;23.00;;;10.60;;
1296;SDS011;641;48.492;9.184;2022-12-11T05:44:22;21.30;;;10.93;;
1296;SDS011;641;48.492;9.184;2022-12-11T05:46:48;19.20;;;9.83;;
1296;SDS011;641;48.492;9.184;2022-12-11T05:49:14;21.70;;;9.57;;
1296;SDS011;641;48.492;9.184;2022-12-11T05:51:40;22.10;;;10.43;;
1296;SDS011;641;48.492;9.184;2022-12-11T05:54:07;23.23;;;10.45;;
1296;SDS011;641;48.492;9.184;2022-12-11T05:56:33;23.23;;;10.90;;
1296;SDS011;641;48.492;9.184;2022-12-11T05:59:00;22.48;;;9.50;;
1296;SDS011;641;48.492;9.184;2022-12-11T06:01:31;22.75;;;12.15;;
1296;SDS011;641;48.492;9.184;2022-12-11T06:03:59;18.92;;;9.35;;
1296;SDS011;641;48.492;9.184;2022-12-11T06:06:25;24.45;;;11.07;;
1296;SDS011;641;48.492;9.184;2022-12-11T06:08:52;18.23;;;8.77;;
1296;SDS011;641;48.492;9.184;2022-12-11T06:11:19;18.10;;;9.38;;
1296;SDS011;641;48.492;9.184;2022-12-11T06:13:46;22.73;;;11.05;;
1296;SDS011;641;48.492;9.184;2022-12-11T06:16:11;20.37;;;9.97;;
1296;SDS011;641;48.492;9.184;2022-12-11T06:18:38;22.40;;;11.47;;
1296;SDS011;641;48.492;9.184;2022-12-11T06:21:16;21.58;;;9.13;;
1296;SDS011;641;48.492;9.184;2022-12-11T06:23:47;19.70;;;8.32;;
1296;SDS011;641;48.492;9.184;2022-12-11T06:26:15;20.65;;;8.77;;
1296;SDS011;641;48.492;9.184;2022-12-11T06:28:41;21.70;;;9.65;;
1296;SDS011;641;48.492;9.184;2022-12-11T06:31:06;17.50;;;8.63;;
1296;SDS011;641;48.492;9.184;2022-12-11T06:33:32;19.93;;;8.70;;
1296;SDS011;641;48.492;9.184;2022-12-11T06:36:02;21.15;;;9.50;;
1296;SDS011;641;48.492;9.184;2022-12-11T06:38:32;22.90;;;8.90;;
1296;SDS011;641;48.492;9.184;2022-12-11T06:40:58;24.83;;;10.00;;
1296;SDS011;641;48.492;9.184;2022-12-11T06:43:26;17.65;;;8.77;;
1296;SDS011;641;48.492;9.184;2022-12-11T06:45:52;20.93;;;9.33;;
1296;SDS011;641;48.492;9.184;2022-12-11T06:48:18;21.90;;;9.27;;
1296;SDS011;641;48.492;9.184;2022-12-11T06:50:44;18.17;;;8.35;;
1296;SDS011;641;48.492;9.184;2022-12-11T06:53:10;21.30;;;9.52;;
1296;SDS011;641;48.492;9.184;2022-12-11T06:55:37;19.27;;;10.05;;
1296;SDS011;641;48.492;9.184;2022-12-11T06:58:03;18.20;;;8.77;;
1296;SDS011;641;48.492;9.184;2022-12-11T07:00:29;19.70;;;8.60;;
1296;SDS011;641;48.492;9.184;2022-12-11T07:02:55;19.60;;;9.60;;
1296;SDS011;641;48.492;9.184;2022-12-11T07:05:21;20.63;;;7.90;;
1296;SDS011;641;48.492;9.184;2022-12-11T07:07:47;23.23;;;10.25;;
1296;SDS011;641;48.492;9.184;2022-12-11T07:10:13;20.10;;;8.83;;
1296;SDS011;641;48.492;9.184;2022-12-11T07:12:39;21.80;;;10.93;;
1296;SDS011;641;48.492;9.184;2022-12-11T07:15:05;23.43;;;9.23;;
1296;SDS011;641;48.492;9.184;2022-12-11T07:17:31;23.02;;;8.95;;
1296;SDS011;641;48.492;9.184;2022-12-11T07:19:56;22.07;;;7.70;;
1296;SDS011;641;48.492;9.184;2022-12-11T07:22:22;21.00;;;8.57;;
1296;SDS011;641;48.492;9.184;2022-12-11T07:24:48;13.03;;;5.37;;
1296;SDS011;641;48.492;9.184;2022-12-11T07:27:14;21.55;;;10.10;;
1296;SDS011;641;48.492;9.184;2022-12-11T07:29:39;23.10;;;11.00;;
1296;SDS011;641;48.492;9.184;2022-12-11T07:32:05;25.70;;;11.17;;
1296;SDS011;641;48.492;9.184;2022-12-11T07:34:31;22.10;;;10.70;;
1296;SDS011;641;48.492;9.184;2022-12-11T07:36:56;22.07;;;11.10;;
1296;SDS011;641;48.492;9.184;2022-12-11T07:39:22;29.17;;;12.63;;
1296;SDS011;641;48.492;9.184;2022-12-11T07:41:47;25.43;;;12.20;;
1296;SDS011;641;48.492;9.184;2022-12-11T07:44:13;22.40;;;10.97;;
1296;SDS011;641;48.492;9.184;2022-12-11T07:46:39;28.93;;;12.67;;
1296;SDS011;641;48.492;9.184;2022-12-11T07:49:04;27.00;;;12.60;;
1296;SDS011;641;48.492;9.184;2022-12-11T07:51:31;23.47;;;11.93;;
1296;SDS011;641;48.492;9.184;2022-12-11T07:54:03;25.20;;;12.20;;
1296;SDS011;641;48.492;9.184;2022-12-11T07:56:31;22.70;;;11.40;;
1296;SDS011;641;48.492;9.184;2022-12-11T07:58:57;24.85;;;12.60;;
1296;SDS011;641;48.492;9.184;2022-12-11T08:01:25;24.63;;;11.32;;
1296;SDS011;641;48.492;9.184;2022-12-11T08:03:52;25.77;;;12.50;;
1296;SDS011;641;48.492;9.184;2022-12-11T08:06:19;26.58;;;11.95;;
1296;SDS011;641;48.492;9.184;2022-12-11T08:08:48;25.50;;;12.45;;
1296;SDS011;641;48.492;9.184;2022-12-11T08:11:14;24.87;;;12.13;;
1296;SDS011;641;48.492;9.184;2022-12-11T08:13:40;23.83;;;11.23;;
1296;SDS011;641;48.492;9.184;2022-12-11T08:16:08;21.02;;;9.32;;
1296;SDS011;641;48.492;9.184;2022-12-11T08:18:36;21.83;;;10.93;;
1296;SDS011;641;48.492;9.184;2022-12-11T08:21:08;24.67;;;12.13;;
1296;SDS011;641;48.492;9.184;2022-12-11T08:23:37;25.77;;;11.95;;
1296;SDS011;641;48.492;9.184;2022-12-11T08:26:06;21.20;;;11.43;;
1296;SDS011;641;48.492;9.184;2022-12-11T08:28:34;26.38;;;11.27;;
1296;SDS011;641;48.492;9.184;2022-12-11T08:30:59;21.47;;;11.00;;
1296;SDS011;641;48.492;9.184;2022-12-11T08:33:28;26.80;;;12.20;;
1296;SDS011;641;48.492;9.184;2022-12-11T08:35:54;24.00;;;12.10;;
1296;SDS011;641;48.492;9.184;2022-12-11T08:38:19;25.10;;;12.57;;
1296;SDS011;641;48.492;9.184;2022-12-11T08:40:45;22.27;;;11.33;;
1296;SDS011;641;48.492;9.184;2022-12-11T08:43:11;23.90;;;11.37;;
1296;SDS011;641;48.492;9.184;2022-12-11T08:45:36;26.43;;;12.17;;
1296;SDS011;641;48.492;9.184;2022-12-11T08:48:03;24.83;;;10.73;;
1296;SDS011;641;48.492;9.184;2022-12-11T08:50:29;26.57;;;12.03;;
1296;SDS011;641;48.492;9.184;2022-12-11T08:52:54;26.93;;;11.00;;
1296;SDS011;641;48.492;9.184;2022-12-11T08:55:20;25.03;;;11.40;;
1296;SDS011;641;48.492;9.184;2022-12-11T08:57:46;20.07;;;8.80;;
1296;SDS011;641;48.492;9.184;2022-12-11T09:00:12;26.20;;;11.50;;
1296;SDS011;641;48.492;9.184;2022-12-11T09:02:39;22.60;;;9.60;;
1296;SDS011;641;48.492;9.184;2022-12-11T09:05:05;26.53;;;12.30;;
1296;SDS011;641;48.492;9.184;2022-12-11T09:07:33;23.02;;;11.43;;
1296;SDS011;641;48.492;9.184;2022-12-11T09:09:59;22.60;;;11.43;;
1296;SDS011;641;48.492;9.184;2022-12-11T09:12:26;23.70;;;12.17;;
1296;SDS011;641;48.492;9.184;2022-12-11T09:14:52;26.17;;;13.23;;
1296;SDS011;641;48.492;9.184;2022-12-11T09:17:18;26.60;;;13.60;;
1296;SDS011;641;48.492;9.184;2022-12-11T09:19:44;28.77;;;12.93;;
1296;SDS011;641;48.492;9.184;2022-12-11T09:22:10;25.17;;;12.23;;
1296;SDS011;641;48.492;9.184;2022-12-11T09:24:37;27.25;;;12.73;;
1296;SDS011;641;48.492;9.184;2022-12-11T09:27:03;20.77;;;10.75;;
1296;SDS011;641;48.492;9.184;2022-12-11T09:29:30;23.70;;;10.73;;
1296;SDS011;641;48.492;9.184;2022-12-11T09:31:56;21.85;;;11.88;;
1296;SDS011;641;48.492;9.184;2022-12-11T09:34:22;26.00;;;12.60;;
1296;SDS011;641;48.492;9.184;2022-12-11T09:36:48;24.27;;;11.77;;
1296;SDS011;641;48.492;9.184;2022-12-11T09:39:14;22.53;;;9.50;;
1296;SDS011;641;48.492;9.184;2022-12-11T09:46:46;25.20;;;10.60;;
1296;SDS011;641;48.492;9.184;2022-12-11T09:52:07;22.30;;;11.25;;
1296;SDS011;641;48.492;9.184;2022-12-11T09:54:47;21.10;;;10.93;;
1296;SDS011;641;48.492;9.184;2022-12-11T09:57:18;21.07;;;9.80;;
1296;SDS011;641;48.492;9.184;2022-12-11T10:00:02;20.23;;;9.75;;
1296;SDS011;641;48.492;9.184;2022-12-11T10:02:46;22.33;;;11.32;;
1296;SDS011;641;48.492;9.184;2022-12-11T10:08:52;22.75;;;10.05;;
1296;SDS011;641;48.492;9.184;2022-12-11T10:11:44;20.52;;;9.40;;
1296;SDS011;641;48.492;9.184;2022-12-11T10:17:31;22.63;;;10.30;;
1296;SDS011;641;48.492;9.184;2022-12-11T10:20:14;21.40;;;10.03;;
1296;SDS011;641;48.492;9.184;2022-12-11T10:22:47;18.23;;;9.35;;
1296;SDS011;641;48.492;9.184;2022-12-11T10:25:31;18.02;;;9.32;;
1296;SDS011;641;48.492;9.184;2022-12-11T10:28:16;16.90;;;7.60;;
1296;SDS011;641;48.492;9.184;2022-12-11T10:36:05;23.40;;;10.60;;
1296;SDS011;641;48.492;9.184;2022-12-11T10:38:33;34.50;;;14.95;;
1296;SDS011;641;48.492;9.184;2022-12-11T10:41:07;19.73;;;10.10;;
1296;SDS011;641;48.492;9.184;2022-12-11T10:43:43;24.83;;;11.40;;
1296;SDS011;641;48.492;9.184;2022-12-11T10:46:15;19.40;;;9.20;;
1296;SDS011;641;48.492;9.184;2022-12-11T10:48:53;17.30;;;8.93;;
1296;SDS011;641;48.492;9.184;2022-12-11T10:51:21;18.80;;;9.03;;
1296;SDS011;641;48.492;9.184;2022-12-11T10:54:14;18.37;;;8.40;;
1296;SDS011;641;48.492;9.184;2022-12-11T10:56:51;19.30;;;7.73;;
1296;SDS011;641;48.492;9.184;2022-12-11T10:59:25;18.10;;;7.87;;
1296;SDS011;641;48.492;9.184;2022-12-11T11:04:50;15.30;;;6.77;;
1296;SDS011;641;48.492;9.184;2022-12-11T11:09:48;17.37;;;9.13;;
1296;SDS011;641;48.492;9.184;2022-12-11T11:12:20;18.87;;;9.23;;
1296;SDS011;641;48.492;9.184;2022-12-11T11:14:58;16.10;;;7.57;;
1296;SDS011;641;48.492;9.184;2022-12-11T11:17:29;16.57;;;7.23;;
1296;SDS011;641;48.492;9.184;2022-12-11T11:19:56;17.20;;;8.90;;
1296;SDS011;641;48.492;9.184;2022-12-11T11:22:28;14.63;;;6.20;;
1296;SDS011;641;48.492;9.184;2022-12-11T11:24:57;14.53;;;6.40;;
1296;SDS011;641;48.492;9.184;2022-12-11T11:27:32;10.63;;;4.83;;
1296;SDS011;641;48.492;9.184;2022-12-11T11:30:05;15.53;;;6.10;;
1296;SDS011;641;48.492;9.184;2022-12-11T11:32:41;17.40;;;6.40;;
1296;SDS011;641;48.492;9.184;2022-12-11T11:37:37;19.17;;;6.27;;
1296;SDS011;641;48.492;9.184;2022-12-11T11:40:07;13.13;;;5.60;;
1296;SDS011;641;48.492;9.184;2022-12-11T11:45:36;16.17;;;6.17;;
1296;SDS011;641;48.492;9.184;2022-12-11T11:51:45;17.00;;;6.00;;
1296;SDS011;641;48.492;9.184;2022-12-11T11:54:00;13.63;;;6.00;;
1296;SDS011;641;48.492;9.184;2022-12-11T11:56:34;12.83;;;5.50;;
1296;SDS011;641;48.492;9.184;2022-12-11T12:02:00;12.83;;;5.10;;
1296;SDS011;641;48.492;9.184;2022-12-11T12:04:32;14.13;;;4.93;;
1296;SDS011;641;48.492;9.184;2022-12-11T12:09:55;14.73;;;5.60;;
1296;SDS011;641;48.492;9.184;2022-12-11T12:13:09;13.47;;;4.70;;
1296;SDS011;641;48.492;9.184;2022-12-11T12:18:05;11.93;;;4.30;;
1296;SDS011;641;48.492;9.184;2022-12-11T12:23:16;10.73;;;4.10;;
1296;SDS011;641;48.492;9.184;2022-12-11T12:25:53;10.43;;;3.93;;
1296;SDS011;641;48.492;9.184;2022-12-11T12:34:20;10.73;;;3.80;;
1296;SDS011;641;48.492;9.184;2022-12-11T12:37:13;9.10;;;2.93;;
1296;SDS011;641;48.492;9.184;2022-12-11T12:39:51;10.50;;;3.20;;
1296;SDS011;641;48.492;9.184;2022-12-11T12:42:27;8.03;;;2.87;;
1296;SDS011;641;48.492;9.184;2022-12-11T12:47:47;21.13;;;9.63;;
1296;SDS011;641;48.492;9.184;2022-12-11T12:50:18;12.83;;;3.73;;
1296;SDS011;641;48.492;9.184;2022-12-11T12:52:46;9.73;;;4.43;;
1296;SDS011;641;48.492;9.184;2022-12-11T12:55:22;12.05;;;4.70;;
1296;SDS011;641;48.492;9.184;2022-12-11T12:57:49;9.73;;;3.92;;
1296;SDS011;641;48.492;9.184;2022-12-11T13:00:34;12.85;;;4.35;;
1296;SDS011;641;48.492;9.184;2022-12-11T13:03:21;9.50;;;4.00;;
1296;SDS011;641;48.492;9.184;2022-12-11T13:08:23;14.33;;;4.30;;
1296;SDS011;641;48.492;9.184;2022-12-11T13:10:57;13.70;;;4.30;;
1296;SDS011;641;48.492;9.184;2022-12-11T13:18:40;9.77;;;3.60;;
1296;SDS011;641;48.492;9.184;2022-12-11T13:26:37;9.80;;;3.07;;
1296;SDS011;641;48.492;9.184;2022-12-11T13:29:03;11.30;;;2.50;;
1296;SDS011;641;48.492;9.184;2022-12-11T13:33:55;8.93;;;3.73;;
1296;SDS011;641;48.492;9.184;2022-12-11T13:36:26;7.53;;;2.30;;
1296;SDS011;641;48.492;9.184;2022-12-11T13:38:57;7.73;;;2.17;;
1296;SDS011;641;48.492;9.184;2022-12-11T13:41:26;11.67;;;3.10;;
1296;SDS011;641;48.492;9.184;2022-12-11T13:43:52;12.70;;;3.67;;
1296;SDS011;641;48.492;9.184;2022-12-11T13:46:21;8.70;;;2.90;;
1296;SDS011;641;48.492;9.184;2022-12-11T13:48:54;7.10;;;1.80;;
1296;SDS011;641;48.492;9.184;2022-12-11T13:51:25;9.30;;;2.70;;
1296;SDS011;641;48.492;9.184;2022-12-11T13:56:31;11.77;;;3.97;;
1296;SDS011;641;48.492;9.184;2022-12-11T13:58:56;23.53;;;10.70;;
1296;SDS011;641;48.492;9.184;2022-12-11T14:01:23;7.93;;;2.20;;
1296;SDS011;641;48.492;9.184;2022-12-11T14:03:58;11.93;;;3.10;;
1296;SDS011;641;48.492;9.184;2022-12-11T14:06:31;9.00;;;2.40;;
1296;SDS011;641;48.492;9.184;2022-12-11T14:08:59;7.73;;;2.50;;
1296;SDS011;641;48.492;9.184;2022-12-11T14:11:35;10.60;;;2.63;;
1296;SDS011;641;48.492;9.184;2022-12-11T14:14:05;9.87;;;3.20;;
1296;SDS011;641;48.492;9.184;2022-12-11T14:16:33;10.73;;;3.13;;
1296;SDS011;641;48.492;9.184;2022-12-11T14:19:03;10.50;;;3.40;;
1296;SDS011;641;48.492;9.184;2022-12-11T14:21:31;6.70;;;1.87;;
1296;SDS011;641;48.492;9.184;2022-12-11T14:23:58;8.70;;;2.37;;
1296;SDS011;641;48.492;9.184;2022-12-11T14:26:31;8.10;;;2.37;;
1296;SDS011;641;48.492;9.184;2022-12-11T14:28:58;11.43;;;3.33;;
1296;SDS011;641;48.492;9.184;2022-12-11T14:31:28;9.60;;;2.83;;
1296;SDS011;641;48.492;9.184;2022-12-11T14:34:05;7.63;;;2.43;;
1296;SDS011;641;48.492;9.184;2022-12-11T14:36:36;9.47;;;3.27;;
1296;SDS011;641;48.492;9.184;2022-12-11T14:39:12;10.97;;;3.67;;
1296;SDS011;641;48.492;9.184;2022-12-11T14:41:51;10.47;;;3.40;;
1296;SDS011;641;48.492;9.184;2022-12-11T14:44:28;8.77;;;3.77;;
1296;SDS011;641;48.492;9.184;2022-12-11T14:47:02;9.80;;;2.97;;
1296;SDS011;641;48.492;9.184;2022-12-11T14:51:59;11.90;;;4.53;;
1296;SDS011;641;48.492;9.184;2022-12-11T14:54:28;13.60;;;4.47;;
1296;SDS011;641;48.492;9.184;2022-12-11T14:57:01;13.43;;;4.73;;
1296;SDS011;641;48.492;9.184;2022-12-11T14:59:30;13.20;;;4.57;;
1296;SDS011;641;48.492;9.184;2022-12-11T15:02:16;9.17;;;3.33;;
1296;SDS011;641;48.492;9.184;2022-12-11T15:07:36;9.97;;;3.63;;
1296;SDS011;641;48.492;9.184;2022-12-11T15:10:03;13.70;;;4.47;;
1296;SDS011;641;48.492;9.184;2022-12-11T15:12:29;11.40;;;4.13;;
1296;SDS011;641;48.492;9.184;2022-12-11T15:14:59;12.87;;;5.00;;
1296;SDS011;641;48.492;9.184;2022-12-11T15:17:29;13.83;;;5.20;;
1296;SDS011;641;48.492;9.184;2022-12-11T15:20:02;11.23;;;4.73;;
1296;SDS011;641;48.492;9.184;2022-12-11T15:22:31;14.53;;;5.57;;
1296;SDS011;641;48.492;9.184;2022-12-11T15:24:57;13.03;;;4.87;;
1296;SDS011;641;48.492;9.184;2022-12-11T15:27:31;13.97;;;5.37;;
1296;SDS011;641;48.492;9.184;2022-12-11T15:32:39;15.30;;;7.60;;
1296;SDS011;641;48.492;9.184;2022-12-11T15:35:24;13.40;;;6.00;;
1296;SDS011;641;48.492;9.184;2022-12-11T15:37:52;14.50;;;6.40;;
1296;SDS011;641;48.492;9.184;2022-12-11T15:40:18;15.67;;;7.70;;
1296;SDS011;641;48.492;9.184;2022-12-11T15:42:44;19.07;;;8.03;;
1296;SDS011;641;48.492;9.184;2022-12-11T15:45:14;17.23;;;9.40;;
1296;SDS011;641;48.492;9.184;2022-12-11T15:47:42;17.23;;;8.20;;
1296;SDS011;641;48.492;9.184;2022-12-11T15:50:14;18.97;;;9.27;;
1296;SDS011;641;48.492;9.184;2022-12-11T15:52:41;19.20;;;9.10;;
1296;SDS011;641;48.492;9.184;2022-12-11T15:55:07;12.83;;;6.67;;
1296;SDS011;641;48.492;9.184;2022-12-11T15:57:33;26.03;;;5.60;;
1296;SDS011;641;48.492;9.184;2022-12-11T15:59:59;11.53;;;4.47;;
1296;SDS011;641;48.492;9.184;2022-12-11T16:02:25;12.00;;;5.03;;
1296;SDS011;641;48.492;9.184;2022-12-11T16:04:51;10.10;;;3.93;;
1296;SDS011;641;48.492;9.184;2022-12-11T16:07:21;9.10;;;2.90;;
1296;SDS011;641;48.492;9.184;2022-12-11T16:09:52;16.43;;;2.93;;
1296;SDS011;641;48.492;9.184;2022-12-11T16:12:17;12.53;;;2.87;;
1296;SDS011;641;48.492;9.184;2022-12-11T16:14:44;13.10;;;3.47;;
1296;SDS011;641;48.492;9.184;2022-12-11T16:17:10;8.83;;;2.80;;
1296;SDS011;641;48.492;9.184;2022-12-11T16:19:37;8.70;;;3.03;;
1296;SDS011;641;48.492;9.184;2022-12-11T16:22:07;12.17;;;3.60;;
1296;SDS011;641;48.492;9.184;2022-12-11T16:24:35;9.10;;;3.57;;
1296;SDS011;641;48.492;9.184;2022-12-11T16:27:02;9.47;;;2.70;;
1296;SDS011;641;48.492;9.184;2022-12-11T16:29:28;10.80;;;3.47;;
1296;SDS011;641;48.492;9.184;2022-12-11T16:31:58;9.20;;;3.30;;
1296;SDS011;641;48.492;9.184;2022-12-11T16:34:24;10.13;;;3.13;;
1296;SDS011;641;48.492;9.184;2022-12-11T16:36:50;10.47;;;3.57;;
1296;SDS011;641;48.492;9.184;2022-12-11T16:39:16;9.20;;;3.20;;
1296;SDS011;641;48.492;9.184;2022-12-11T16:41:42;9.60;;;3.47;;
1296;SDS011;641;48.492;9.184;2022-12-11T16:44:07;10.77;;;3.10;;
1296;SDS011;641;48.492;9.184;2022-12-11T16:46:34;10.85;;;3.40;;
1296;SDS011;641;48.492;9.184;2022-12-11T16:49:00;8.80;;;2.80;;
1296;SDS011;641;48.492;9.184;2022-12-11T16:51:25;9.60;;;3.63;;
1296;SDS011;641;48.492;9.184;2022-12-11T16:53:51;10.23;;;3.73;;
1296;SDS011;641;48.492;9.184;2022-12-11T16:56:18;11.30;;;3.00;;
1296;SDS011;641;48.492;9.184;2022-12-11T16:58:43;8.63;;;2.73;;
1296;SDS011;641;48.492;9.184;2022-12-11T17:01:09;9.00;;;3.20;;